sensor_id;sensor_type;location;lat;lon;timestamp;P1;durP1;ratioP1;P2;durP2;ratioP2
77160;SDS011;66135;0.000;0.000;2023-03-01T00:02:02;2.22;;;1.83;;
77160;SDS011;66135;0.000;0.000;2023-03-01T00:04:29;1.70;;;1.30;;
77160;SDS011;66135;0.000;0.000;2023-03-01T00:06:55;1.52;;;1.42;;
77160;SDS011;66135;0.000;0.000;2023-03-01T00:09:21;1.60;;;0.85;;
77160;SDS011;66135;0.000;0.000;2023-03-01T00:11:46;1.10;;;1.00;;
77160;SDS011;66135;0.000;0.000;2023-03-01T00:14:12;2.25;;;1.85;;
77160;SDS011;66135;0.000;0.000;2023-03-01T00:16:39;1.75;;;1.60;;
77160;SDS011;66135;0.000;0.000;2023-03-01T00:19:15;2.33;;;1.40;;
77160;SDS011;66135;0.000;0.000;2023-03-01T00:21:43;2.05;;;1.40;;
77160;SDS011;66135;0.000;0.000;2023-03-01T00:24:08;1.75;;;1.63;;
77160;SDS011;66135;0.000;0.000;2023-03-01T00:26:35;1.98;;;1.67;;
77160;SDS011;66135;0.000;0.000;2023-03-01T00:29:01;1.67;;;1.50;;
77160;SDS011;66135;0.000;0.000;2023-03-01T00:31:27;2.33;;;1.95;;
77160;SDS011;66135;0.000;0.000;2023-03-01T00:34:02;1.77;;;1.67;;
77160;SDS011;66135;0.000;0.000;2023-03-01T00:36:30;1.40;;;1.30;;
77160;SDS011;66135;0.000;0.000;2023-03-01T00:38:57;2.03;;;1.27;;
77160;SDS011;66135;0.000;0.000;2023-03-01T00:41:23;2.83;;;1.90;;
77160;SDS011;66135;0.000;0.000;2023-03-01T00:43:59;1.40;;;1.10;;
77160;SDS011;66135;0.000;0.000;2023-03-01T00:46:25;3.22;;;1.63;;
77160;SDS011;66135;0.000;0.000;2023-03-01T00:48:52;2.38;;;2.17;;
77160;SDS011;66135;0.000;0.000;2023-03-01T00:53:45;2.42;;;1.80;;
77160;SDS011;66135;0.000;0.000;2023-03-01T00:56:11;1.52;;;1.42;;
77160;SDS011;66135;0.000;0.000;2023-03-01T00:58:38;1.95;;;1.50;;
77160;SDS011;66135;0.000;0.000;2023-03-01T01:01:08;1.73;;;1.63;;
77160;SDS011;66135;0.000;0.000;2023-03-01T01:03:48;1.48;;;1.35;;
77160;SDS011;66135;0.000;0.000;2023-03-01T01:06:27;1.77;;;1.50;;
77160;SDS011;66135;0.000;0.000;2023-03-01T01:08:55;1.13;;;0.40;;
77160;SDS011;66135;0.000;0.000;2023-03-01T01:11:22;2.15;;;2.05;;
77160;SDS011;66135;0.000;0.000;2023-03-01T01:13:48;1.65;;;1.42;;
77160;SDS011;66135;0.000;0.000;2023-03-01T01:16:15;0.98;;;0.52;;
77160;SDS011;66135;0.000;0.000;2023-03-01T01:18:41;2.00;;;1.90;;
77160;SDS011;66135;0.000;0.000;2023-03-01T01:21:07;1.65;;;1.55;;
77160;SDS011;66135;0.000;0.000;2023-03-01T01:23:35;1.98;;;1.60;;
77160;SDS011;66135;0.000;0.000;2023-03-01T01:26:09;1.42;;;1.17;;
77160;SDS011;66135;0.000;0.000;2023-03-01T01:28:36;1.63;;;1.35;;
77160;SDS011;66135;0.000;0.000;2023-03-01T01:31:02;2.13;;;1.63;;
77160;SDS011;66135;0.000;0.000;2023-03-01T01:33:27;1.35;;;0.65;;
77160;SDS011;66135;0.000;0.000;2023-03-01T01:35:53;1.75;;;1.02;;
77160;SDS011;66135;0.000;0.000;2023-03-01T01:38:19;1.48;;;1.30;;
77160;SDS011;66135;0.000;0.000;2023-03-01T01:40:48;1.85;;;1.75;;
77160;SDS011;66135;0.000;0.000;2023-03-01T01:43:16;1.48;;;1.30;;
77160;SDS011;66135;0.000;0.000;2023-03-01T01:45:45;1.88;;;1.67;;
77160;SDS011;66135;0.000;0.000;2023-03-01T01:48:12;1.63;;;1.52;;
77160;SDS011;66135;0.000;0.000;2023-03-01T01:50:41;1.50;;;1.40;;
77160;SDS011;66135;0.000;0.000;2023-03-01T01:53:12;1.25;;;1.15;;
77160;SDS011;66135;0.000;0.000;2023-03-01T01:55:45;1.80;;;1.70;;
77160;SDS011;66135;0.000;0.000;2023-03-01T01:58:13;1.95;;;1.50;;
77160;SDS011;66135;0.000;0.000;2023-03-01T02:00:46;1.75;;;1.50;;
77160;SDS011;66135;0.000;0.000;2023-03-01T02:03:14;1.83;;;1.33;;
77160;SDS011;66135;0.000;0.000;2023-03-01T02:05:55;2.05;;;1.92;;
77160;SDS011;66135;0.000;0.000;2023-03-01T02:08:37;1.27;;;0.52;;
77160;SDS011;66135;0.000;0.000;2023-03-01T02:11:06;1.95;;;1.85;;
77160;SDS011;66135;0.000;0.000;2023-03-01T02:13:33;2.33;;;2.13;;
77160;SDS011;66135;0.000;0.000;2023-03-01T02:16:11;1.70;;;1.38;;
77160;SDS011;66135;0.000;0.000;2023-03-01T02:18:38;1.60;;;1.17;;
77160;SDS011;66135;0.000;0.000;2023-03-01T02:23:40;1.65;;;1.52;;
77160;SDS011;66135;0.000;0.000;2023-03-01T02:26:11;1.65;;;1.20;;
77160;SDS011;66135;0.000;0.000;2023-03-01T02:28:56;2.30;;;2.15;;
77160;SDS011;66135;0.000;0.000;2023-03-01T02:31:22;1.05;;;0.60;;
77160;SDS011;66135;0.000;0.000;2023-03-01T02:34:06;1.52;;;0.65;;
77160;SDS011;66135;0.000;0.000;2023-03-01T02:36:37;1.33;;;1.23;;
77160;SDS011;66135;0.000;0.000;2023-03-01T02:39:06;1.45;;;1.17;;
77160;SDS011;66135;0.000;0.000;2023-03-01T02:41:56;1.65;;;1.55;;
77160;SDS011;66135;0.000;0.000;2023-03-01T02:44:22;1.52;;;1.42;;
77160;SDS011;66135;0.000;0.000;2023-03-01T02:46:52;1.05;;;0.70;;
77160;SDS011;66135;0.000;0.000;2023-03-01T02:49:27;2.13;;;1.92;;
77160;SDS011;66135;0.000;0.000;2023-03-01T02:54:51;1.40;;;1.15;;
77160;SDS011;66135;0.000;0.000;2023-03-01T02:57:23;1.42;;;0.73;;
77160;SDS011;66135;0.000;0.000;2023-03-01T02:59:52;1.90;;;1.38;;
77160;SDS011;66135;0.000;0.000;2023-03-01T03:02:24;1.48;;;1.38;;
77160;SDS011;66135;0.000;0.000;2023-03-01T03:05:04;2.45;;;2.35;;
77160;SDS011;66135;0.000;0.000;2023-03-01T03:07:33;1.80;;;1.70;;
77160;SDS011;66135;0.000;0.000;2023-03-01T03:10:05;1.50;;;1.40;;
77160;SDS011;66135;0.000;0.000;2023-03-01T03:12:32;1.50;;;1.05;;
77160;SDS011;66135;0.000;0.000;2023-03-01T03:14:57;1.30;;;0.50;;
77160;SDS011;66135;0.000;0.000;2023-03-01T03:17:23;1.90;;;1.80;;
77160;SDS011;66135;0.000;0.000;2023-03-01T03:19:48;1.20;;;0.90;;
77160;SDS011;66135;0.000;0.000;2023-03-01T03:22:14;1.45;;;1.35;;
77160;SDS011;66135;0.000;0.000;2023-03-01T03:24:40;1.67;;;1.30;;
77160;SDS011;66135;0.000;0.000;2023-03-01T03:27:05;1.45;;;1.35;;
77160;SDS011;66135;0.000;0.000;2023-03-01T03:29:31;0.90;;;0.40;;
77160;SDS011;66135;0.000;0.000;2023-03-01T03:31:57;2.03;;;1.30;;
77160;SDS011;66135;0.000;0.000;2023-03-01T03:34:23;2.38;;;1.58;;
77160;SDS011;66135;0.000;0.000;2023-03-01T03:36:52;2.20;;;0.60;;
77160;SDS011;66135;0.000;0.000;2023-03-01T03:39:27;1.98;;;1.77;;
77160;SDS011;66135;0.000;0.000;2023-03-01T03:42:13;1.73;;;1.60;;
77160;SDS011;66135;0.000;0.000;2023-03-01T03:44:38;1.42;;;1.33;;
77160;SDS011;66135;0.000;0.000;2023-03-01T03:47:03;1.58;;;1.23;;
77160;SDS011;66135;0.000;0.000;2023-03-01T03:49:29;0.93;;;0.43;;
77160;SDS011;66135;0.000;0.000;2023-03-01T03:51:54;1.95;;;1.85;;
77160;SDS011;66135;0.000;0.000;2023-03-01T03:54:19;2.13;;;1.92;;
77160;SDS011;66135;0.000;0.000;2023-03-01T03:56:45;1.70;;;1.60;;
77160;SDS011;66135;0.000;0.000;2023-03-01T03:59:10;1.55;;;1.45;;
77160;SDS011;66135;0.000;0.000;2023-03-01T04:01:36;1.40;;;1.30;;
77160;SDS011;66135;0.000;0.000;2023-03-01T04:04:01;1.90;;;1.58;;
77160;SDS011;66135;0.000;0.000;2023-03-01T04:06:29;1.67;;;1.58;;
77160;SDS011;66135;0.000;0.000;2023-03-01T04:08:54;1.65;;;1.38;;
77160;SDS011;66135;0.000;0.000;2023-03-01T04:11:24;1.45;;;1.13;;
77160;SDS011;66135;0.000;0.000;2023-03-01T04:13:54;1.65;;;1.23;;
77160;SDS011;66135;0.000;0.000;2023-03-01T04:16:31;1.08;;;0.77;;
77160;SDS011;66135;0.000;0.000;2023-03-01T04:18:57;1.33;;;1.23;;
77160;SDS011;66135;0.000;0.000;2023-03-01T04:21:24;1.38;;;1.27;;
77160;SDS011;66135;0.000;0.000;2023-03-01T04:23:50;1.92;;;1.83;;
77160;SDS011;66135;0.000;0.000;2023-03-01T04:26:17;1.63;;;1.52;;
77160;SDS011;66135;0.000;0.000;2023-03-01T04:28:44;1.30;;;1.15;;
77160;SDS011;66135;0.000;0.000;2023-03-01T04:31:11;1.42;;;1.33;;
77160;SDS011;66135;0.000;0.000;2023-03-01T04:33:45;1.40;;;1.30;;
77160;SDS011;66135;0.000;0.000;2023-03-01T04:36:16;1.77;;;1.20;;
77160;SDS011;66135;0.000;0.000;2023-03-01T04:38:44;1.63;;;1.52;;
77160;SDS011;66135;0.000;0.000;2023-03-01T04:41:14;2.58;;;2.47;;
77160;SDS011;66135;0.000;0.000;2023-03-01T04:43:44;1.58;;;1.48;;
77160;SDS011;66135;0.000;0.000;2023-03-01T04:46:13;1.10;;;0.73;;
77160;SDS011;66135;0.000;0.000;2023-03-01T04:48:40;1.88;;;1.77;;
77160;SDS011;66135;0.000;0.000;2023-03-01T04:51:07;2.03;;;1.30;;
77160;SDS011;66135;0.000;0.000;2023-03-01T04:53:33;2.10;;;1.30;;
77160;SDS011;66135;0.000;0.000;2023-03-01T04:56:01;1.77;;;1.67;;
77160;SDS011;66135;0.000;0.000;2023-03-01T05:00:53;1.77;;;1.58;;
77160;SDS011;66135;0.000;0.000;2023-03-01T05:03:20;1.83;;;1.67;;
77160;SDS011;66135;0.000;0.000;2023-03-01T05:05:47;2.03;;;1.85;;
77160;SDS011;66135;0.000;0.000;2023-03-01T05:08:13;1.80;;;1.58;;
77160;SDS011;66135;0.000;0.000;2023-03-01T05:10:46;3.20;;;3.00;;
77160;SDS011;66135;0.000;0.000;2023-03-01T05:15:46;3.03;;;1.05;;
77160;SDS011;66135;0.000;0.000;2023-03-01T05:18:25;1.65;;;1.55;;
77160;SDS011;66135;0.000;0.000;2023-03-01T05:20:53;1.90;;;1.48;;
77160;SDS011;66135;0.000;0.000;2023-03-01T05:23:21;1.45;;;1.33;;
77160;SDS011;66135;0.000;0.000;2023-03-01T05:25:50;1.33;;;1.23;;
77160;SDS011;66135;0.000;0.000;2023-03-01T05:28:18;1.92;;;1.70;;
77160;SDS011;66135;0.000;0.000;2023-03-01T05:30:45;1.98;;;1.60;;
77160;SDS011;66135;0.000;0.000;2023-03-01T05:35:42;2.00;;;1.80;;
77160;SDS011;66135;0.000;0.000;2023-03-01T05:38:12;1.60;;;1.50;;
77160;SDS011;66135;0.000;0.000;2023-03-01T05:40:39;3.20;;;1.52;;
77160;SDS011;66135;0.000;0.000;2023-03-01T05:43:05;1.48;;;1.38;;
77160;SDS011;66135;0.000;0.000;2023-03-01T05:45:31;1.98;;;0.65;;
77160;SDS011;66135;0.000;0.000;2023-03-01T05:50:27;0.75;;;0.30;;
77160;SDS011;66135;0.000;0.000;2023-03-01T05:52:58;2.03;;;1.65;;
77160;SDS011;66135;0.000;0.000;2023-03-01T05:55:25;1.55;;;1.45;;
77160;SDS011;66135;0.000;0.000;2023-03-01T05:57:51;1.50;;;1.17;;
77160;SDS011;66135;0.000;0.000;2023-03-01T06:00:17;1.95;;;1.77;;
77160;SDS011;66135;0.000;0.000;2023-03-01T06:02:44;1.60;;;1.50;;
77160;SDS011;66135;0.000;0.000;2023-03-01T06:05:10;2.63;;;1.85;;
77160;SDS011;66135;0.000;0.000;2023-03-01T06:07:37;2.40;;;1.25;;
77160;SDS011;66135;0.000;0.000;2023-03-01T06:10:03;3.85;;;0.73;;
77160;SDS011;66135;0.000;0.000;2023-03-01T06:12:35;1.88;;;1.55;;
77160;SDS011;66135;0.000;0.000;2023-03-01T06:15:06;2.15;;;1.55;;
77160;SDS011;66135;0.000;0.000;2023-03-01T06:17:34;2.38;;;0.98;;
77160;SDS011;66135;0.000;0.000;2023-03-01T06:20:03;2.33;;;2.08;;
77160;SDS011;66135;0.000;0.000;2023-03-01T06:22:33;1.95;;;1.80;;
77160;SDS011;66135;0.000;0.000;2023-03-01T06:24:59;1.95;;;1.77;;
77160;SDS011;66135;0.000;0.000;2023-03-01T06:27:24;1.75;;;1.65;;
77160;SDS011;66135;0.000;0.000;2023-03-01T06:29:49;2.60;;;1.58;;
77160;SDS011;66135;0.000;0.000;2023-03-01T06:32:15;2.20;;;1.48;;
77160;SDS011;66135;0.000;0.000;2023-03-01T06:34:41;2.25;;;1.77;;
77160;SDS011;66135;0.000;0.000;2023-03-01T06:37:06;2.47;;;0.85;;
77160;SDS011;66135;0.000;0.000;2023-03-01T06:39:32;2.15;;;1.95;;
77160;SDS011;66135;0.000;0.000;2023-03-01T06:41:58;2.33;;;1.52;;
77160;SDS011;66135;0.000;0.000;2023-03-01T06:44:23;2.63;;;1.63;;
77160;SDS011;66135;0.000;0.000;2023-03-01T06:46:49;2.08;;;1.92;;
77160;SDS011;66135;0.000;0.000;2023-03-01T06:49:14;2.05;;;1.58;;
77160;SDS011;66135;0.000;0.000;2023-03-01T06:51:55;2.05;;;1.33;;
77160;SDS011;66135;0.000;0.000;2023-03-01T06:54:21;2.90;;;1.65;;
77160;SDS011;66135;0.000;0.000;2023-03-01T06:56:47;2.45;;;2.08;;
77160;SDS011;66135;0.000;0.000;2023-03-01T06:59:13;3.30;;;1.70;;
77160;SDS011;66135;0.000;0.000;2023-03-01T07:01:41;2.33;;;1.85;;
77160;SDS011;66135;0.000;0.000;2023-03-01T07:04:07;2.65;;;1.95;;
77160;SDS011;66135;0.000;0.000;2023-03-01T07:06:32;2.53;;;1.83;;
77160;SDS011;66135;0.000;0.000;2023-03-01T07:08:58;2.53;;;1.92;;
77160;SDS011;66135;0.000;0.000;2023-03-01T07:11:23;4.38;;;2.13;;
77160;SDS011;66135;0.000;0.000;2023-03-01T07:13:49;4.50;;;1.70;;
77160;SDS011;66135;0.000;0.000;2023-03-01T07:16:14;4.65;;;2.42;;
77160;SDS011;66135;0.000;0.000;2023-03-01T07:18:40;4.93;;;2.50;;
77160;SDS011;66135;0.000;0.000;2023-03-01T07:21:07;3.85;;;2.88;;
77160;SDS011;66135;0.000;0.000;2023-03-01T07:23:34;5.78;;;2.53;;
77160;SDS011;66135;0.000;0.000;2023-03-01T07:25:59;4.80;;;2.17;;
77160;SDS011;66135;0.000;0.000;2023-03-01T07:28:25;3.70;;;1.05;;
77160;SDS011;66135;0.000;0.000;2023-03-01T07:30:52;2.70;;;2.50;;
77160;SDS011;66135;0.000;0.000;2023-03-01T07:33:18;2.92;;;2.10;;
77160;SDS011;66135;0.000;0.000;2023-03-01T07:35:43;3.30;;;1.88;;
77160;SDS011;66135;0.000;0.000;2023-03-01T07:38:08;3.60;;;1.52;;
77160;SDS011;66135;0.000;0.000;2023-03-01T07:40:35;2.22;;;1.67;;
77160;SDS011;66135;0.000;0.000;2023-03-01T07:43:00;3.03;;;2.17;;
77160;SDS011;66135;0.000;0.000;2023-03-01T07:45:26;3.47;;;2.00;;
77160;SDS011;66135;0.000;0.000;2023-03-01T07:47:53;2.60;;;1.80;;
77160;SDS011;66135;0.000;0.000;2023-03-01T07:50:19;3.03;;;1.88;;
77160;SDS011;66135;0.000;0.000;2023-03-01T07:52:46;3.30;;;2.00;;
77160;SDS011;66135;0.000;0.000;2023-03-01T07:55:12;2.72;;;1.85;;
77160;SDS011;66135;0.000;0.000;2023-03-01T07:57:37;3.25;;;1.70;;
77160;SDS011;66135;0.000;0.000;2023-03-01T08:00:22;3.00;;;2.00;;
77160;SDS011;66135;0.000;0.000;2023-03-01T08:02:48;4.30;;;1.63;;
77160;SDS011;66135;0.000;0.000;2023-03-01T08:05:13;5.10;;;2.28;;
77160;SDS011;66135;0.000;0.000;2023-03-01T08:07:39;2.90;;;1.92;;
77160;SDS011;66135;0.000;0.000;2023-03-01T08:10:04;2.97;;;1.70;;
77160;SDS011;66135;0.000;0.000;2023-03-01T08:12:30;4.43;;;2.20;;
77160;SDS011;66135;0.000;0.000;2023-03-01T08:14:55;2.65;;;2.25;;
77160;SDS011;66135;0.000;0.000;2023-03-01T08:17:22;2.95;;;2.13;;
77160;SDS011;66135;0.000;0.000;2023-03-01T08:19:47;3.50;;;2.15;;
77160;SDS011;66135;0.000;0.000;2023-03-01T08:22:13;4.05;;;2.15;;
77160;SDS011;66135;0.000;0.000;2023-03-01T08:24:38;2.35;;;1.88;;
77160;SDS011;66135;0.000;0.000;2023-03-01T08:27:04;2.97;;;2.30;;
77160;SDS011;66135;0.000;0.000;2023-03-01T08:29:32;3.70;;;2.15;;
77160;SDS011;66135;0.000;0.000;2023-03-01T08:31:58;3.63;;;2.25;;
77160;SDS011;66135;0.000;0.000;2023-03-01T08:34:24;2.38;;;2.00;;
77160;SDS011;66135;0.000;0.000;2023-03-01T08:36:50;2.13;;;1.20;;
77160;SDS011;66135;0.000;0.000;2023-03-01T08:39:17;2.85;;;2.13;;
77160;SDS011;66135;0.000;0.000;2023-03-01T08:41:44;2.65;;;1.67;;
77160;SDS011;66135;0.000;0.000;2023-03-01T08:44:10;3.17;;;2.00;;
77160;SDS011;66135;0.000;0.000;2023-03-01T08:46:38;3.45;;;2.28;;
77160;SDS011;66135;0.000;0.000;2023-03-01T08:49:15;3.97;;;2.13;;
77160;SDS011;66135;0.000;0.000;2023-03-01T08:51:50;3.80;;;1.60;;
77160;SDS011;66135;0.000;0.000;2023-03-01T08:54:17;4.57;;;2.08;;
77160;SDS011;66135;0.000;0.000;2023-03-01T08:56:45;5.05;;;2.00;;
77160;SDS011;66135;0.000;0.000;2023-03-01T08:59:11;3.55;;;2.05;;
77160;SDS011;66135;0.000;0.000;2023-03-01T09:01:38;3.85;;;1.33;;
77160;SDS011;66135;0.000;0.000;2023-03-01T09:04:05;1.92;;;1.83;;
77160;SDS011;66135;0.000;0.000;2023-03-01T09:06:31;2.58;;;1.70;;
77160;SDS011;66135;0.000;0.000;2023-03-01T09:09:05;6.72;;;1.77;;
77160;SDS011;66135;0.000;0.000;2023-03-01T09:11:31;3.30;;;0.82;;
77160;SDS011;66135;0.000;0.000;2023-03-01T09:13:58;5.68;;;2.22;;
77160;SDS011;66135;0.000;0.000;2023-03-01T09:16:23;2.35;;;1.08;;
77160;SDS011;66135;0.000;0.000;2023-03-01T09:18:52;2.80;;;1.98;;
77160;SDS011;66135;0.000;0.000;2023-03-01T09:21:19;3.30;;;1.70;;
77160;SDS011;66135;0.000;0.000;2023-03-01T09:23:48;3.92;;;2.38;;
77160;SDS011;66135;0.000;0.000;2023-03-01T09:26:17;4.82;;;1.73;;
77160;SDS011;66135;0.000;0.000;2023-03-01T09:28:46;4.25;;;2.17;;
77160;SDS011;66135;0.000;0.000;2023-03-01T09:31:12;4.60;;;1.88;;
77160;SDS011;66135;0.000;0.000;2023-03-01T09:33:40;3.15;;;2.00;;
77160;SDS011;66135;0.000;0.000;2023-03-01T09:36:07;2.92;;;1.00;;
77160;SDS011;66135;0.000;0.000;2023-03-01T09:38:36;5.97;;;2.50;;
77160;SDS011;66135;0.000;0.000;2023-03-01T09:41:01;5.43;;;1.50;;
77160;SDS011;66135;0.000;0.000;2023-03-01T09:43:42;4.68;;;2.13;;
77160;SDS011;66135;0.000;0.000;2023-03-01T09:46:23;5.90;;;3.03;;
77160;SDS011;66135;0.000;0.000;2023-03-01T09:48:51;6.72;;;3.50;;
77160;SDS011;66135;0.000;0.000;2023-03-01T09:51:42;5.95;;;2.65;;
77160;SDS011;66135;0.000;0.000;2023-03-01T09:54:11;4.45;;;2.10;;
77160;SDS011;66135;0.000;0.000;2023-03-01T09:56:37;4.30;;;2.15;;
77160;SDS011;66135;0.000;0.000;2023-03-01T10:02:07;4.18;;;2.65;;
77160;SDS011;66135;0.000;0.000;2023-03-01T10:05:34;4.90;;;2.00;;
77160;SDS011;66135;0.000;0.000;2023-03-01T10:08:26;2.85;;;1.15;;
77160;SDS011;66135;0.000;0.000;2023-03-01T10:11:04;4.40;;;1.42;;
77160;SDS011;66135;0.000;0.000;2023-03-01T10:19:11;3.83;;;2.50;;
77160;SDS011;66135;0.000;0.000;2023-03-01T10:24:18;2.92;;;1.77;;
77160;SDS011;66135;0.000;0.000;2023-03-01T10:26:54;4.85;;;2.30;;
77160;SDS011;66135;0.000;0.000;2023-03-01T10:29:48;3.08;;;1.63;;
77160;SDS011;66135;0.000;0.000;2023-03-01T10:32:32;5.32;;;2.55;;
77160;SDS011;66135;0.000;0.000;2023-03-01T10:34:58;3.33;;;2.95;;
77160;SDS011;66135;0.000;0.000;2023-03-01T10:37:23;3.83;;;2.80;;
77160;SDS011;66135;0.000;0.000;2023-03-01T10:40:05;5.20;;;2.90;;
77160;SDS011;66135;0.000;0.000;2023-03-01T10:42:36;5.22;;;3.45;;
77160;SDS011;66135;0.000;0.000;2023-03-01T10:45:19;3.47;;;2.53;;
77160;SDS011;66135;0.000;0.000;2023-03-01T10:50:33;3.13;;;2.80;;
77160;SDS011;66135;0.000;0.000;2023-03-01T11:00:33;6.68;;;3.03;;
77160;SDS011;66135;0.000;0.000;2023-03-01T11:03:26;5.03;;;2.40;;
77160;SDS011;66135;0.000;0.000;2023-03-01T11:05:54;4.07;;;3.47;;
77160;SDS011;66135;0.000;0.000;2023-03-01T11:08:33;3.40;;;1.38;;
77160;SDS011;66135;0.000;0.000;2023-03-01T11:13:58;3.00;;;0.85;;
77160;SDS011;66135;0.000;0.000;2023-03-01T11:16:45;3.50;;;1.92;;
77160;SDS011;66135;0.000;0.000;2023-03-01T11:19:16;3.13;;;2.05;;
77160;SDS011;66135;0.000;0.000;2023-03-01T11:21:59;4.32;;;2.25;;
77160;SDS011;66135;0.000;0.000;2023-03-01T11:24:42;3.53;;;2.55;;
77160;SDS011;66135;0.000;0.000;2023-03-01T11:27:21;2.75;;;2.08;;
77160;SDS011;66135;0.000;0.000;2023-03-01T11:30:41;3.33;;;2.08;;
77160;SDS011;66135;0.000;0.000;2023-03-01T11:32:52;3.95;;;2.20;;
77160;SDS011;66135;0.000;0.000;2023-03-01T11:35:24;3.45;;;2.10;;
77160;SDS011;66135;0.000;0.000;2023-03-01T11:40:37;1.95;;;0.80;;
77160;SDS011;66135;0.000;0.000;2023-03-01T11:50:50;5.35;;;1.63;;
77160;SDS011;66135;0.000;0.000;2023-03-01T11:56:15;5.57;;;2.22;;
77160;SDS011;66135;0.000;0.000;2023-03-01T11:59:07;2.65;;;1.83;;
77160;SDS011;66135;0.000;0.000;2023-03-01T12:01:56;3.85;;;1.65;;
77160;SDS011;66135;0.000;0.000;2023-03-01T12:13:06;4.70;;;1.55;;
77160;SDS011;66135;0.000;0.000;2023-03-01T12:21:27;2.38;;;1.27;;
77160;SDS011;66135;0.000;0.000;2023-03-01T12:29:24;4.28;;;2.47;;
77160;SDS011;66135;0.000;0.000;2023-03-01T12:35:13;7.85;;;3.30;;
77160;SDS011;66135;0.000;0.000;2023-03-01T12:43:28;3.17;;;2.45;;
77160;SDS011;66135;0.000;0.000;2023-03-01T12:49:08;4.43;;;2.28;;
77160;SDS011;66135;0.000;0.000;2023-03-01T12:51:50;4.55;;;2.00;;
77160;SDS011;66135;0.000;0.000;2023-03-01T12:54:35;6.55;;;1.90;;
77160;SDS011;66135;0.000;0.000;2023-03-01T12:59:51;5.13;;;2.75;;
77160;SDS011;66135;0.000;0.000;2023-03-01T13:03:05;6.47;;;2.15;;
77160;SDS011;66135;0.000;0.000;2023-03-01T13:11:41;2.88;;;2.00;;
77160;SDS011;66135;0.000;0.000;2023-03-01T13:16:48;5.95;;;2.25;;
77160;SDS011;66135;0.000;0.000;2023-03-01T13:19:18;4.18;;;1.90;;
77160;SDS011;66135;0.000;0.000;2023-03-01T13:22:01;4.70;;;1.92;;
77160;SDS011;66135;0.000;0.000;2023-03-01T13:25:01;3.40;;;1.58;;
77160;SDS011;66135;0.000;0.000;2023-03-01T13:27:38;4.70;;;2.08;;
77160;SDS011;66135;0.000;0.000;2023-03-01T13:30:04;4.82;;;2.28;;
77160;SDS011;66135;0.000;0.000;2023-03-01T13:32:49;4.82;;;2.00;;
77160;SDS011;66135;0.000;0.000;2023-03-01T13:37:41;7.97;;;2.38;;
77160;SDS011;66135;0.000;0.000;2023-03-01T13:42:53;4.10;;;2.03;;
77160;SDS011;66135;0.000;0.000;2023-03-01T13:47:46;4.22;;;2.63;;
77160;SDS011;66135;0.000;0.000;2023-03-01T13:50:21;3.47;;;1.70;;
77160;SDS011;66135;0.000;0.000;2023-03-01T13:58:19;5.32;;;2.25;;
77160;SDS011;66135;0.000;0.000;2023-03-01T14:01:28;5.72;;;2.17;;
77160;SDS011;66135;0.000;0.000;2023-03-01T14:03:59;3.60;;;2.25;;
77160;SDS011;66135;0.000;0.000;2023-03-01T14:07:09;7.88;;;2.17;;
77160;SDS011;66135;0.000;0.000;2023-03-01T14:10:03;5.82;;;2.13;;
77160;SDS011;66135;0.000;0.000;2023-03-01T14:20:50;3.88;;;2.20;;
77160;SDS011;66135;0.000;0.000;2023-03-01T14:23:18;5.00;;;1.70;;
77160;SDS011;66135;0.000;0.000;2023-03-01T14:25:55;2.25;;;1.98;;
77160;SDS011;66135;0.000;0.000;2023-03-01T14:28:23;4.03;;;1.70;;
77160;SDS011;66135;0.000;0.000;2023-03-01T14:30:54;3.63;;;2.13;;
77160;SDS011;66135;0.000;0.000;2023-03-01T14:33:29;3.72;;;1.95;;
77160;SDS011;66135;0.000;0.000;2023-03-01T14:36:10;6.68;;;3.03;;
77160;SDS011;66135;0.000;0.000;2023-03-01T14:38:42;3.13;;;1.88;;
77160;SDS011;66135;0.000;0.000;2023-03-01T14:41:18;3.42;;;1.08;;
77160;SDS011;66135;0.000;0.000;2023-03-01T14:43:45;3.83;;;1.98;;
77160;SDS011;66135;0.000;0.000;2023-03-01T14:46:19;4.68;;;2.08;;
77160;SDS011;66135;0.000;0.000;2023-03-01T14:48:54;1.98;;;1.85;;
77160;SDS011;66135;0.000;0.000;2023-03-01T14:51:41;3.85;;;1.98;;
77160;SDS011;66135;0.000;0.000;2023-03-01T14:54:58;4.63;;;2.40;;
77160;SDS011;66135;0.000;0.000;2023-03-01T14:57:12;2.88;;;2.00;;
77160;SDS011;66135;0.000;0.000;2023-03-01T14:59:52;2.53;;;1.75;;
77160;SDS011;66135;0.000;0.000;2023-03-01T15:02:31;2.42;;;1.80;;
77160;SDS011;66135;0.000;0.000;2023-03-01T15:05:01;3.78;;;2.17;;
77160;SDS011;66135;0.000;0.000;2023-03-01T15:07:30;4.00;;;1.50;;
77160;SDS011;66135;0.000;0.000;2023-03-01T15:09:59;2.63;;;1.25;;
77160;SDS011;66135;0.000;0.000;2023-03-01T15:14:54;4.45;;;1.70;;
77160;SDS011;66135;0.000;0.000;2023-03-01T15:17:26;4.80;;;1.77;;
77160;SDS011;66135;0.000;0.000;2023-03-01T15:20:20;2.65;;;1.83;;
77160;SDS011;66135;0.000;0.000;2023-03-01T15:22:50;2.40;;;2.05;;
77160;SDS011;66135;0.000;0.000;2023-03-01T15:25:17;2.83;;;1.75;;
77160;SDS011;66135;0.000;0.000;2023-03-01T15:27:47;4.10;;;1.55;;
77160;SDS011;66135;0.000;0.000;2023-03-01T15:30:17;2.13;;;1.48;;
77160;SDS011;66135;0.000;0.000;2023-03-01T15:33:35;4.82;;;2.15;;
77160;SDS011;66135;0.000;0.000;2023-03-01T15:38:57;2.65;;;1.58;;
77160;SDS011;66135;0.000;0.000;2023-03-01T15:41:38;4.22;;;1.95;;
77160;SDS011;66135;0.000;0.000;2023-03-01T15:44:23;4.22;;;1.52;;
77160;SDS011;66135;0.000;0.000;2023-03-01T15:46:55;2.95;;;1.48;;
77160;SDS011;66135;0.000;0.000;2023-03-01T15:49:24;3.97;;;1.65;;
77160;SDS011;66135;0.000;0.000;2023-03-01T15:51:51;2.75;;;1.52;;
77160;SDS011;66135;0.000;0.000;2023-03-01T15:54:20;2.17;;;1.88;;
77160;SDS011;66135;0.000;0.000;2023-03-01T15:56:48;6.43;;;1.60;;
77160;SDS011;66135;0.000;0.000;2023-03-01T15:59:14;5.95;;;1.90;;
77160;SDS011;66135;0.000;0.000;2023-03-01T16:01:43;3.20;;;1.48;;
77160;SDS011;66135;0.000;0.000;2023-03-01T16:04:12;1.95;;;1.40;;
77160;SDS011;66135;0.000;0.000;2023-03-01T16:06:45;6.05;;;2.40;;
77160;SDS011;66135;0.000;0.000;2023-03-01T16:09:23;2.20;;;0.80;;
77160;SDS011;66135;0.000;0.000;2023-03-01T16:11:49;3.60;;;1.45;;
77160;SDS011;66135;0.000;0.000;2023-03-01T16:14:19;2.78;;;1.50;;
77160;SDS011;66135;0.000;0.000;2023-03-01T16:16:45;4.28;;;1.55;;
77160;SDS011;66135;0.000;0.000;2023-03-01T16:21:37;4.28;;;1.67;;
77160;SDS011;66135;0.000;0.000;2023-03-01T16:24:03;3.92;;;2.75;;
77160;SDS011;66135;0.000;0.000;2023-03-01T16:26:28;2.13;;;1.38;;
77160;SDS011;66135;0.000;0.000;2023-03-01T16:28:55;3.15;;;1.65;;
77160;SDS011;66135;0.000;0.000;2023-03-01T16:31:21;3.75;;;1.60;;
77160;SDS011;66135;0.000;0.000;2023-03-01T16:33:47;3.72;;;1.67;;
77160;SDS011;66135;0.000;0.000;2023-03-01T16:36:15;3.05;;;0.60;;
77160;SDS011;66135;0.000;0.000;2023-03-01T16:38:53;2.38;;;1.77;;
77160;SDS011;66135;0.000;0.000;2023-03-01T16:41:30;2.03;;;1.58;;
77160;SDS011;66135;0.000;0.000;2023-03-01T16:43:55;1.73;;;1.63;;
77160;SDS011;66135;0.000;0.000;2023-03-01T16:46:22;3.28;;;1.40;;
77160;SDS011;66135;0.000;0.000;2023-03-01T16:49:16;3.60;;;1.92;;
77160;SDS011;66135;0.000;0.000;2023-03-01T16:51:42;1.65;;;1.27;;
77160;SDS011;66135;0.000;0.000;2023-03-01T16:56:34;16.38;;;4.95;;
77160;SDS011;66135;0.000;0.000;2023-03-01T16:59:20;38.80;;;10.75;;
77160;SDS011;66135;0.000;0.000;2023-03-01T17:01:45;24.42;;;7.95;;
77160;SDS011;66135;0.000;0.000;2023-03-01T17:04:12;31.27;;;6.75;;
77160;SDS011;66135;0.000;0.000;2023-03-01T17:06:37;42.92;;;11.45;;
77160;SDS011;66135;0.000;0.000;2023-03-01T17:09:03;49.90;;;14.20;;
77160;SDS011;66135;0.000;0.000;2023-03-01T17:11:30;39.90;;;10.52;;
77160;SDS011;66135;0.000;0.000;2023-03-01T17:13:55;40.78;;;10.27;;
77160;SDS011;66135;0.000;0.000;2023-03-01T17:16:21;37.65;;;10.55;;
77160;SDS011;66135;0.000;0.000;2023-03-01T17:18:46;33.72;;;11.20;;
77160;SDS011;66135;0.000;0.000;2023-03-01T17:21:12;36.80;;;11.00;;
77160;SDS011;66135;0.000;0.000;2023-03-01T17:23:39;28.70;;;8.77;;
77160;SDS011;66135;0.000;0.000;2023-03-01T17:26:10;33.45;;;9.50;;
77160;SDS011;66135;0.000;0.000;2023-03-01T17:28:37;33.03;;;10.15;;
77160;SDS011;66135;0.000;0.000;2023-03-01T17:31:04;35.00;;;9.73;;
77160;SDS011;66135;0.000;0.000;2023-03-01T17:33:31;34.75;;;10.15;;